sensor_id;sensor_type;location;lat;lon;timestamp;pressure;altitude;pressure_sealevel;temperature;humidity
29197;BME280;62796;42.654;23.316;2023-01-04T00:00:20;95472.25;;;11.46;56.04
29197;BME280;62796;42.654;23.316;2023-01-04T00:02:46;95473.47;;;11.45;55.89
29197;BME280;62796;42.654;23.316;2023-01-04T00:05:11;95473.16;;;11.52;56.01
29197;BME280;62796;42.654;23.316;2023-01-04T00:07:36;95482.53;;;11.55;55.64
29197;BME280;62796;42.654;23.316;2023-01-04T00:10:03;95473.44;;;11.54;55.67
29197;BME280;62796;42.654;23.316;2023-01-04T00:12:29;95473.16;;;11.52;55.78
29197;BME280;62796;42.654;23.316;2023-01-04T00:14:54;95479.63;;;11.49;55.76
29197;BME280;62796;42.654;23.316;2023-01-04T00:17:19;95470.06;;;11.50;55.50
29197;BME280;62796;42.654;23.316;2023-01-04T00:19:45;95476.66;;;11.53;55.32
29197;BME280;62796;42.654;23.316;2023-01-04T00:22:10;95471.94;;;11.44;55.62
29197;BME280;62796;42.654;23.316;2023-01-04T00:24:35;95470.72;;;11.36;55.58
29197;BME280;62796;42.654;23.316;2023-01-04T00:27:01;95462.13;;;11.34;55.87
29197;BME280;62796;42.654;23.316;2023-01-04T00:29:26;95475.66;;;11.32;55.52
29197;BME280;62796;42.654;23.316;2023-01-04T00:31:52;95488.31;;;11.33;55.68
29197;BME280;62796;42.654;23.316;2023-01-04T00:34:17;95480.28;;;11.35;55.44
29197;BME280;62796;42.654;23.316;2023-01-04T00:36:43;95486.16;;;11.37;55.62
29197;BME280;62796;42.654;23.316;2023-01-04T00:39:12;95488.00;;;11.40;55.63
29197;BME280;62796;42.654;23.316;2023-01-04T00:41:45;95492.16;;;11.36;55.53
29197;BME280;62796;42.654;23.316;2023-01-04T00:44:11;95490.44;;;11.38;55.13
29197;BME280;62796;42.654;23.316;2023-01-04T00:46:37;95493.22;;;11.38;55.43
29197;BME280;62796;42.654;23.316;2023-01-04T00:49:04;95485.81;;;11.35;55.10
29197;BME280;62796;42.654;23.316;2023-01-04T00:51:30;95489.50;;;11.41;55.29
29197;BME280;62796;42.654;23.316;2023-01-04T00:53:57;95491.44;;;11.17;55.80
29197;BME280;62796;42.654;23.316;2023-01-04T00:56:24;95494.22;;;11.08;56.14
29197;BME280;62796;42.654;23.316;2023-01-04T00:58:54;95489.13;;;11.16;55.92
29197;BME280;62796;42.654;23.316;2023-01-04T01:01:20;95484.69;;;11.09;56.01
29197;BME280;62796;42.654;23.316;2023-01-04T01:03:45;95478.06;;;11.06;55.92
29197;BME280;62796;42.654;23.316;2023-01-04T01:06:11;95478.97;;;11.13;55.70
29197;BME280;62796;42.654;23.316;2023-01-04T01:08:36;95484.03;;;11.14;55.58
29197;BME280;62796;42.654;23.316;2023-01-04T01:11:07;95491.75;;;11.19;55.56
29197;BME280;62796;42.654;23.316;2023-01-04T01:13:34;95485.28;;;11.13;55.67
29197;BME280;62796;42.654;23.316;2023-01-04T01:16:08;95490.06;;;11.13;55.44
29197;BME280;62796;42.654;23.316;2023-01-04T01:18:35;95501.59;;;11.20;55.55
29197;BME280;62796;42.654;23.316;2023-01-04T01:21:15;95502.50;;;11.17;55.74
29197;BME280;62796;42.654;23.316;2023-01-04T01:23:41;95513.94;;;11.19;55.49
29197;BME280;62796;42.654;23.316;2023-01-04T01:26:11;95503.28;;;11.18;55.26
29197;BME280;62796;42.654;23.316;2023-01-04T01:28:36;95504.06;;;11.18;55.30
29197;BME280;62796;42.654;23.316;2023-01-04T01:31:11;95497.91;;;11.14;55.66
29197;BME280;62796;42.654;23.316;2023-01-04T01:33:38;95498.81;;;11.20;55.50
29197;BME280;62796;42.654;23.316;2023-01-04T01:36:04;95500.22;;;11.16;55.40
29197;BME280;62796;42.654;23.316;2023-01-04T01:38:30;95507.47;;;11.13;55.50
29197;BME280;62796;42.654;23.316;2023-01-04T01:40:56;95501.16;;;11.13;55.25
29197;BME280;62796;42.654;23.316;2023-01-04T01:43:43;95502.97;;;11.25;55.31
29197;BME280;62796;42.654;23.316;2023-01-04T01:46:08;95501.25;;;11.27;55.31
29197;BME280;62796;42.654;23.316;2023-01-04T01:48:35;95514.22;;;11.21;55.25
29197;BME280;62796;42.654;23.316;2023-01-04T01:51:02;95512.38;;;11.27;55.32
29197;BME280;62796;42.654;23.316;2023-01-04T01:53:31;95506.50;;;11.34;55.04
29197;BME280;62796;42.654;23.316;2023-01-04T01:55:59;95491.72;;;11.28;55.26
29197;BME280;62796;42.654;23.316;2023-01-04T01:58:34;95499.13;;;11.22;55.83
29197;BME280;62796;42.654;23.316;2023-01-04T02:01:02;95499.75;;;11.08;56.20
29197;BME280;62796;42.654;23.316;2023-01-04T02:03:34;95498.25;;;11.07;55.84
29197;BME280;62796;42.654;23.316;2023-01-04T02:06:03;95490.84;;;11.13;55.94
29197;BME280;62796;42.654;23.316;2023-01-04T02:08:29;95488.19;;;11.19;55.58
29197;BME280;62796;42.654;23.316;2023-01-04T02:10:55;95489.28;;;11.21;55.48
29197;BME280;62796;42.654;23.316;2023-01-04T02:13:23;95494.66;;;11.25;55.33
29197;BME280;62796;42.654;23.316;2023-01-04T02:16:14;95486.81;;;11.14;55.66
29197;BME280;62796;42.654;23.316;2023-01-04T02:27:51;95492.84;;;11.03;56.03
29197;BME280;62796;42.654;23.316;2023-01-04T02:36:34;95494.72;;;10.97;56.47
29197;BME280;62796;42.654;23.316;2023-01-04T02:39:07;95492.13;;;10.85;56.97
29197;BME280;62796;42.654;23.316;2023-01-04T02:45:02;95479.97;;;10.82;56.96
29197;BME280;62796;42.654;23.316;2023-01-04T02:47:35;95485.66;;;10.88;57.03
29197;BME280;62796;42.654;23.316;2023-01-04T02:50:25;95478.25;;;10.94;56.87
29197;BME280;62796;42.654;23.316;2023-01-04T02:53:11;95487.50;;;10.91;56.94
29197;BME280;62796;42.654;23.316;2023-01-04T03:08:02;95477.06;;;10.68;57.76
29197;BME280;62796;42.654;23.316;2023-01-04T03:13:16;95473.38;;;10.62;57.94
29197;BME280;62796;42.654;23.316;2023-01-04T03:15:45;95469.97;;;10.48;58.02
29197;BME280;62796;42.654;23.316;2023-01-04T03:20:43;95475.22;;;10.37;58.54
29197;BME280;62796;42.654;23.316;2023-01-04T03:23:13;95476.75;;;10.29;58.76
29197;BME280;62796;42.654;23.316;2023-01-04T03:26:04;95485.22;;;10.26;59.31
29197;BME280;62796;42.654;23.316;2023-01-04T03:28:51;95487.19;;;10.16;59.56
29197;BME280;62796;42.654;23.316;2023-01-04T03:34:27;95482.44;;;10.17;59.43
29197;BME280;62796;42.654;23.316;2023-01-04T03:45:32;95491.91;;;9.97;60.01
29197;BME280;62796;42.654;23.316;2023-01-04T03:48:29;95493.75;;;9.91;60.36
29197;BME280;62796;42.654;23.316;2023-01-04T03:51:16;95491.75;;;9.92;60.43
29197;BME280;62796;42.654;23.316;2023-01-04T03:53:52;95491.28;;;9.93;60.15
29197;BME280;62796;42.654;23.316;2023-01-04T03:56:21;95485.00;;;9.93;60.26
29197;BME280;62796;42.654;23.316;2023-01-04T03:58:49;95490.53;;;10.02;60.19
29197;BME280;62796;42.654;23.316;2023-01-04T04:01:20;95485.91;;;9.90;60.31
29197;BME280;62796;42.654;23.316;2023-01-04T04:03:47;95496.53;;;9.91;59.93
29197;BME280;62796;42.654;23.316;2023-01-04T04:06:31;95505.44;;;9.95;60.21
29197;BME280;62796;42.654;23.316;2023-01-04T04:09:15;95500.69;;;9.96;60.35
29197;BME280;62796;42.654;23.316;2023-01-04T04:11:40;95496.34;;;9.95;60.09
29197;BME280;62796;42.654;23.316;2023-01-04T04:14:06;95507.59;;;10.00;59.86
29197;BME280;62796;42.654;23.316;2023-01-04T04:16:31;95495.13;;;9.87;60.33
29197;BME280;62796;42.654;23.316;2023-01-04T04:18:56;95515.13;;;9.91;60.40
29197;BME280;62796;42.654;23.316;2023-01-04T04:21:22;95515.25;;;9.87;60.30
29197;BME280;62796;42.654;23.316;2023-01-04T04:23:48;95503.44;;;9.87;60.46
29197;BME280;62796;42.654;23.316;2023-01-04T04:26:13;95504.63;;;9.77;60.42
29197;BME280;62796;42.654;23.316;2023-01-04T04:28:41;95510.00;;;9.80;60.56
29197;BME280;62796;42.654;23.316;2023-01-04T04:31:06;95520.00;;;9.78;60.31
29197;BME280;62796;42.654;23.316;2023-01-04T04:33:32;95521.81;;;9.72;60.61
29197;BME280;62796;42.654;23.316;2023-01-04T04:35:57;95522.91;;;9.74;60.47
29197;BME280;62796;42.654;23.316;2023-01-04T04:38:23;95508.75;;;9.72;60.58
29197;BME280;62796;42.654;23.316;2023-01-04T04:40:48;95518.91;;;9.75;60.42
29197;BME280;62796;42.654;23.316;2023-01-04T04:43:33;95508.00;;;9.72;60.55
29197;BME280;62796;42.654;23.316;2023-01-04T04:45:59;95526.03;;;9.85;60.56
29197;BME280;62796;42.654;23.316;2023-01-04T04:48:24;95533.56;;;9.85;60.75
29197;BME280;62796;42.654;23.316;2023-01-04T04:50:50;95524.78;;;9.86;60.26
29197;BME280;62796;42.654;23.316;2023-01-04T04:53:15;95522.50;;;9.85;60.28
29197;BME280;62796;42.654;23.316;2023-01-04T04:55:40;95522.19;;;9.92;60.25
29197;BME280;62796;42.654;23.316;2023-01-04T04:58:06;95515.41;;;9.84;60.28
29197;BME280;62796;42.654;23.316;2023-01-04T05:00:32;95519.38;;;9.83;60.53
29197;BME280;62796;42.654;23.316;2023-01-04T05:02:58;95527.53;;;9.77;60.87
29197;BME280;62796;42.654;23.316;2023-01-04T05:05:23;95517.50;;;9.71;60.83
29197;BME280;62796;42.654;23.316;2023-01-04T05:07:49;95530.63;;;9.79;60.92
29197;BME280;62796;42.654;23.316;2023-01-04T05:10:14;95517.19;;;9.69;60.78
29197;BME280;62796;42.654;23.316;2023-01-04T05:12:40;95528.28;;;9.78;60.84
29197;BME280;62796;42.654;23.316;2023-01-04T05:15:24;95544.25;;;9.74;61.30
29197;BME280;62796;42.654;23.316;2023-01-04T05:17:50;95535.66;;;9.72;61.08
29197;BME280;62796;42.654;23.316;2023-01-04T05:20:16;95539.63;;;9.71;61.34
29197;BME280;62796;42.654;23.316;2023-01-04T05:22:41;95543.34;;;9.77;61.26
29197;BME280;62796;42.654;23.316;2023-01-04T05:25:07;95535.22;;;9.73;61.33
29197;BME280;62796;42.654;23.316;2023-01-04T05:27:33;95536.28;;;9.76;60.75
29197;BME280;62796;42.654;23.316;2023-01-04T05:29:59;95539.50;;;9.74;61.15
29197;BME280;62796;42.654;23.316;2023-01-04T05:32:42;95536.56;;;9.69;61.08
29197;BME280;62796;42.654;23.316;2023-01-04T05:35:08;95527.97;;;9.67;60.87
29197;BME280;62796;42.654;23.316;2023-01-04T05:37:34;95541.44;;;9.65;61.05
29197;BME280;62796;42.654;23.316;2023-01-04T05:39:59;95547.00;;;9.65;60.91
29197;BME280;62796;42.654;23.316;2023-01-04T05:42:24;95545.47;;;9.64;61.10
29197;BME280;62796;42.654;23.316;2023-01-04T05:44:51;95550.34;;;9.60;61.04
29197;BME280;62796;42.654;23.316;2023-01-04T05:47:16;95546.06;;;9.59;61.13
29197;BME280;62796;42.654;23.316;2023-01-04T05:49:42;95542.38;;;9.62;60.88
29197;BME280;62796;42.654;23.316;2023-01-04T05:52:07;95556.53;;;9.64;60.73
29197;BME280;62796;42.654;23.316;2023-01-04T05:54:32;95560.81;;;9.65;60.79
29197;BME280;62796;42.654;23.316;2023-01-04T05:56:58;95546.84;;;9.68;60.60
29197;BME280;62796;42.654;23.316;2023-01-04T05:59:23;95559.94;;;9.77;60.57
29197;BME280;62796;42.654;23.316;2023-01-04T06:01:48;95560.16;;;9.82;60.02
29197;BME280;62796;42.654;23.316;2023-01-04T06:04:14;95561.22;;;9.85;59.55
29197;BME280;62796;42.654;23.316;2023-01-04T06:06:39;95564.81;;;9.94;59.23
29197;BME280;62796;42.654;23.316;2023-01-04T06:09:04;95561.88;;;9.98;58.90
29197;BME280;62796;42.654;23.316;2023-01-04T06:11:30;95567.75;;;10.00;58.66
29197;BME280;62796;42.654;23.316;2023-01-04T06:13:55;95570.81;;;10.02;58.15
29197;BME280;62796;42.654;23.316;2023-01-04T06:16:20;95572.66;;;10.05;57.64
29197;BME280;62796;42.654;23.316;2023-01-04T06:18:46;95559.72;;;9.93;57.87
29197;BME280;62796;42.654;23.316;2023-01-04T06:21:11;95575.13;;;10.03;57.29
29197;BME280;62796;42.654;23.316;2023-01-04T06:23:36;95574.97;;;10.07;57.67
29197;BME280;62796;42.654;23.316;2023-01-04T06:26:02;95586.66;;;10.11;57.23
29197;BME280;62796;42.654;23.316;2023-01-04T06:28:28;95583.31;;;10.16;57.17
29197;BME280;62796;42.654;23.316;2023-01-04T06:30:53;95594.59;;;10.21;56.58
29197;BME280;62796;42.654;23.316;2023-01-04T06:33:19;95595.34;;;10.22;56.70
29197;BME280;62796;42.654;23.316;2023-01-04T06:35:52;95584.75;;;10.29;56.67
29197;BME280;62796;42.654;23.316;2023-01-04T06:38:17;95598.91;;;10.40;56.67
29197;BME280;62796;42.654;23.316;2023-01-04T06:40:43;95598.47;;;10.33;56.51
29197;BME280;62796;42.654;23.316;2023-01-04T06:43:08;95593.66;;;10.24;56.57
29197;BME280;62796;42.654;23.316;2023-01-04T06:45:33;95584.25;;;10.22;56.82
29197;BME280;62796;42.654;23.316;2023-01-04T06:47:59;95594.19;;;10.10;56.91
29197;BME280;62796;42.654;23.316;2023-01-04T06:50:24;95598.97;;;10.10;57.55
29197;BME280;62796;42.654;23.316;2023-01-04T06:52:49;95592.69;;;10.09;57.38
29197;BME280;62796;42.654;23.316;2023-01-04T06:55:15;95602.13;;;10.21;57.15
29197;BME280;62796;42.654;23.316;2023-01-04T06:57:40;95599.22;;;10.24;56.94
29197;BME280;62796;42.654;23.316;2023-01-04T07:00:06;95581.19;;;10.20;56.67
29197;BME280;62796;42.654;23.316;2023-01-04T07:02:33;95588.28;;;10.21;56.83
29197;BME280;62796;42.654;23.316;2023-01-04T07:04:59;95584.13;;;10.25;56.59
29197;BME280;62796;42.654;23.316;2023-01-04T07:07:24;95589.22;;;10.36;56.78
29197;BME280;62796;42.654;23.316;2023-01-04T07:09:49;95589.38;;;10.32;56.44
29197;BME280;62796;42.654;23.316;2023-01-04T07:12:15;95602.00;;;10.33;56.35
29197;BME280;62796;42.654;23.316;2023-01-04T07:14:40;95605.06;;;10.26;55.86
29197;BME280;62796;42.654;23.316;2023-01-04T07:17:05;95610.28;;;10.24;56.60
29197;BME280;62796;42.654;23.316;2023-01-04T07:19:31;95608.47;;;10.30;56.52
29197;BME280;62796;42.654;23.316;2023-01-04T07:21:57;95617.66;;;10.36;56.13
29197;BME280;62796;42.654;23.316;2023-01-04T07:24:23;95614.00;;;10.30;56.10
29197;BME280;62796;42.654;23.316;2023-01-04T07:26:49;95615.38;;;10.35;55.97
29197;BME280;62796;42.654;23.316;2023-01-04T07:29:15;95628.78;;;10.45;56.05
29197;BME280;62796;42.654;23.316;2023-01-04T07:31:46;95617.41;;;10.52;55.75
29197;BME280;62796;42.654;23.316;2023-01-04T07:34:12;95615.56;;;10.49;55.48
29197;BME280;62796;42.654;23.316;2023-01-04T07:36:38;95615.56;;;10.49;55.94
29197;BME280;62796;42.654;23.316;2023-01-04T07:39:05;95612.63;;;10.44;55.59
29197;BME280;62796;42.654;23.316;2023-01-04T07:41:30;95611.44;;;10.54;55.87
29197;BME280;62796;42.654;23.316;2023-01-04T07:43:56;95613.72;;;10.55;56.01
29197;BME280;62796;42.654;23.316;2023-01-04T07:46:21;95609.09;;;10.52;55.87
29197;BME280;62796;42.654;23.316;2023-01-04T07:48:46;95616.22;;;10.63;55.70
29197;BME280;62796;42.654;23.316;2023-01-04T07:51:12;95620.81;;;10.66;55.68
29197;BME280;62796;42.654;23.316;2023-01-04T07:53:37;95616.38;;;10.68;54.86
29197;BME280;62796;42.654;23.316;2023-01-04T07:56:03;95611.88;;;10.62;55.30
29197;BME280;62796;42.654;23.316;2023-01-04T07:58:32;95612.16;;;10.54;55.47
29197;BME280;62796;42.654;23.316;2023-01-04T08:01:06;95624.81;;;10.55;55.92
29197;BME280;62796;42.654;23.316;2023-01-04T08:03:31;95616.75;;;10.39;55.80
29197;BME280;62796;42.654;23.316;2023-01-04T08:05:57;95629.09;;;10.47;55.86
29197;BME280;62796;42.654;23.316;2023-01-04T08:08:22;95622.66;;;10.50;55.93
29197;BME280;62796;42.654;23.316;2023-01-04T08:10:47;95633.13;;;10.55;55.50
29197;BME280;62796;42.654;23.316;2023-01-04T08:13:13;95627.28;;;10.53;55.32
29197;BME280;62796;42.654;23.316;2023-01-04T08:15:38;95642.34;;;10.52;55.17
29197;BME280;62796;42.654;23.316;2023-01-04T08:18:03;95630.06;;;10.63;54.69
29197;BME280;62796;42.654;23.316;2023-01-04T08:20:29;95630.94;;;10.41;55.31
29197;BME280;62796;42.654;23.316;2023-01-04T08:22:54;95636.34;;;10.45;55.38
29197;BME280;62796;42.654;23.316;2023-01-04T08:25:20;95626.00;;;10.45;55.22
29197;BME280;62796;42.654;23.316;2023-01-04T08:27:45;95621.72;;;10.53;54.76
29197;BME280;62796;42.654;23.316;2023-01-04T08:30:10;95628.78;;;10.54;54.83
29197;BME280;62796;42.654;23.316;2023-01-04T08:32:36;95630.34;;;10.55;54.82
29197;BME280;62796;42.654;23.316;2023-01-04T08:35:03;95639.28;;;10.50;55.48
29197;BME280;62796;42.654;23.316;2023-01-04T08:37:29;95630.97;;;10.60;55.03
29197;BME280;62796;42.654;23.316;2023-01-04T08:39:56;95637.47;;;10.66;55.02
29197;BME280;62796;42.654;23.316;2023-01-04T08:42:21;95636.38;;;10.63;55.25
29197;BME280;62796;42.654;23.316;2023-01-04T08:44:47;95624.81;;;10.55;55.24
29197;BME280;62796;42.654;23.316;2023-01-04T08:47:12;95645.25;;;10.49;55.57
29197;BME280;62796;42.654;23.316;2023-01-04T08:49:37;95639.53;;;10.43;55.97
29197;BME280;62796;42.654;23.316;2023-01-04T08:52:03;95644.44;;;10.39;56.04
29197;BME280;62796;42.654;23.316;2023-01-04T08:54:28;95645.66;;;10.29;56.70
29197;BME280;62796;42.654;23.316;2023-01-04T08:56:54;95653.69;;;10.27;56.54
29197;BME280;62796;42.654;23.316;2023-01-04T08:59:19;95643.53;;;10.33;56.50
29197;BME280;62796;42.654;23.316;2023-01-04T09:01:44;95647.22;;;10.30;56.37
29197;BME280;62796;42.654;23.316;2023-01-04T09:04:10;95638.59;;;10.28;56.33
29197;BME280;62796;42.654;23.316;2023-01-04T09:06:38;95648.13;;;10.36;56.43
29197;BME280;62796;42.654;23.316;2023-01-04T09:09:03;95640.59;;;10.37;56.39
29197;BME280;62796;42.654;23.316;2023-01-04T09:11:29;95640.78;;;10.33;56.20
29197;BME280;62796;42.654;23.316;2023-01-04T09:13:56;95641.06;;;10.35;55.75
29197;BME280;62796;42.654;23.316;2023-01-04T09:16:22;95632.13;;;10.31;55.84
29197;BME280;62796;42.654;23.316;2023-01-04T09:18:47;95645.38;;;10.36;55.81
29197;BME280;62796;42.654;23.316;2023-01-04T09:21:15;95643.38;;;10.37;55.85
29197;BME280;62796;42.654;23.316;2023-01-04T09:23:42;95628.13;;;10.32;55.60
29197;BME280;62796;42.654;23.316;2023-01-04T09:26:19;95624.44;;;10.26;55.88
29197;BME280;62796;42.654;23.316;2023-01-04T09:28:48;95628.41;;;10.25;55.84
29197;BME280;62796;42.654;23.316;2023-01-04T09:31:16;95636.44;;;10.32;55.82
29197;BME280;62796;42.654;23.316;2023-01-04T09:33:42;95631.81;;;10.29;55.86
29197;BME280;62796;42.654;23.316;2023-01-04T09:36:10;95641.19;;;10.23;56.34
29197;BME280;62796;42.654;23.316;2023-01-04T09:38:37;95636.88;;;10.31;56.24
29197;BME280;62796;42.654;23.316;2023-01-04T09:41:19;95632.75;;;10.26;55.92
29197;BME280;62796;42.654;23.316;2023-01-04T09:43:51;95635.50;;;10.26;55.80
29197;BME280;62796;42.654;23.316;2023-01-04T09:46:29;95625.34;;;10.23;55.89
29197;BME280;62796;42.654;23.316;2023-01-04T09:49:10;95630.41;;;10.25;55.39
29197;BME280;62796;42.654;23.316;2023-01-04T09:51:40;95630.25;;;10.19;55.86
29197;BME280;62796;42.654;23.316;2023-01-04T09:54:14;95615.19;;;10.20;55.44
29197;BME280;62796;42.654;23.316;2023-01-04T09:56:48;95628.91;;;10.33;55.35
29197;BME280;62796;42.654;23.316;2023-01-04T09:59:15;95623.22;;;10.27;55.56
29197;BME280;62796;42.654;23.316;2023-01-04T10:01:44;95616.44;;;10.28;55.76
29197;BME280;62796;42.654;23.316;2023-01-04T10:04:18;95625.50;;;10.29;55.70
29197;BME280;62796;42.654;23.316;2023-01-04T10:06:46;95621.06;;;10.31;55.76
29197;BME280;62796;42.654;23.316;2023-01-04T10:09:13;95619.84;;;10.32;55.65
29197;BME280;62796;42.654;23.316;2023-01-04T10:12:07;95618.16;;;10.35;55.80
29197;BME280;62796;42.654;23.316;2023-01-04T10:20:10;95617.09;;;10.50;55.23
29197;BME280;62796;42.654;23.316;2023-01-04T10:35:54;95609.13;;;10.89;53.52
29197;BME280;62796;42.654;23.316;2023-01-04T10:38:27;95609.75;;;10.84;53.36
29197;BME280;62796;42.654;23.316;2023-01-04T10:40:55;95603.88;;;10.82;53.91
29197;BME280;62796;42.654;23.316;2023-01-04T10:43:37;95607.00;;;10.84;53.63
29197;BME280;62796;42.654;23.316;2023-01-04T10:48:52;95626.06;;;10.82;54.11
29197;BME280;62796;42.654;23.316;2023-01-04T10:51:34;95618.38;;;10.86;53.94
29197;BME280;62796;42.654;23.316;2023-01-04T10:56:59;95614.84;;;10.85;54.24
29197;BME280;62796;42.654;23.316;2023-01-04T11:05:28;95609.44;;;11.00;54.06
29197;BME280;62796;42.654;23.316;2023-01-04T11:08:00;95607.91;;;10.99;54.35
29197;BME280;62796;42.654;23.316;2023-01-04T11:10:32;95613.13;;;10.97;54.50
29197;BME280;62796;42.654;23.316;2023-01-04T11:12:59;95603.13;;;10.99;54.22
29197;BME280;62796;42.654;23.316;2023-01-04T11:15:24;95600.81;;;11.07;53.85
29197;BME280;62796;42.654;23.316;2023-01-04T11:17:50;95599.13;;;11.00;53.87
29197;BME280;62796;42.654;23.316;2023-01-04T11:20:16;95592.03;;;10.99;54.21
29197;BME280;62796;42.654;23.316;2023-01-04T11:22:58;95598.81;;;11.07;53.86
29197;BME280;62796;42.654;23.316;2023-01-04T11:25:27;95596.81;;;11.08;53.67
29197;BME280;62796;42.654;23.316;2023-01-04T11:28:07;95586.03;;;11.10;54.04
29197;BME280;62796;42.654;23.316;2023-01-04T11:33:53;95583.53;;;11.30;53.18
29197;BME280;62796;42.654;23.316;2023-01-04T11:39:00;95584.00;;;11.38;53.19
29197;BME280;62796;42.654;23.316;2023-01-04T11:41:26;95573.31;;;11.54;52.63
29197;BME280;62796;42.654;23.316;2023-01-04T11:44:03;95575.44;;;11.59;52.62
29197;BME280;62796;42.654;23.316;2023-01-04T11:46:34;95568.81;;;11.75;52.06
29197;BME280;62796;42.654;23.316;2023-01-04T11:48:59;95575.06;;;11.94;51.06
29197;BME280;62796;42.654;23.316;2023-01-04T11:56:25;95559.34;;;12.24;50.01
29197;BME280;62796;42.654;23.316;2023-01-04T11:59:16;95560.28;;;11.88;50.67
29197;BME280;62796;42.654;23.316;2023-01-04T12:01:44;95557.28;;;12.00;50.54
29197;BME280;62796;42.654;23.316;2023-01-04T12:04:17;95563.13;;;12.35;50.00
29197;BME280;62796;42.654;23.316;2023-01-04T12:06:59;95556.22;;;12.54;48.99
29197;BME280;62796;42.654;23.316;2023-01-04T12:09:29;95547.28;;;12.89;48.50
29197;BME280;62796;42.654;23.316;2023-01-04T12:11:56;95555.63;;;13.42;46.87
29197;BME280;62796;42.654;23.316;2023-01-04T12:14:25;95554.31;;;14.01;45.36
29197;BME280;62796;42.654;23.316;2023-01-04T12:19:20;95558.84;;;14.48;43.66
29197;BME280;62796;42.654;23.316;2023-01-04T12:21:49;95556.53;;;14.67;43.66
29197;BME280;62796;42.654;23.316;2023-01-04T12:24:21;95559.06;;;15.31;42.11
29197;BME280;62796;42.654;23.316;2023-01-04T12:26:48;95546.03;;;15.22;41.77
29197;BME280;62796;42.654;23.316;2023-01-04T12:31:46;95543.38;;;15.90;40.02
29197;BME280;62796;42.654;23.316;2023-01-04T12:39:04;95557.25;;;15.28;41.75
29197;BME280;62796;42.654;23.316;2023-01-04T12:43:58;95543.84;;;16.57;38.98
29197;BME280;62796;42.654;23.316;2023-01-04T12:54:47;95542.50;;;17.06;37.11
29197;BME280;62796;42.654;23.316;2023-01-04T13:00:00;95534.34;;;16.49;38.35
29197;BME280;62796;42.654;23.316;2023-01-04T13:04:55;95529.03;;;16.09;39.27
29197;BME280;62796;42.654;23.316;2023-01-04T13:07:27;95535.25;;;15.92;39.76
29197;BME280;62796;42.654;23.316;2023-01-04T13:10:09;95527.75;;;15.73;40.08
29197;BME280;62796;42.654;23.316;2023-01-04T13:20:55;95534.59;;;14.54;43.25
29197;BME280;62796;42.654;23.316;2023-01-04T13:23:23;95543.16;;;14.51;43.34
29197;BME280;62796;42.654;23.316;2023-01-04T13:25:49;95539.72;;;14.41;43.64
29197;BME280;62796;42.654;23.316;2023-01-04T13:28:18;95530.91;;;14.28;43.98
29197;BME280;62796;42.654;23.316;2023-01-04T13:30:44;95544.41;;;14.15;44.18
29197;BME280;62796;42.654;23.316;2023-01-04T13:35:39;95557.31;;;13.83;45.07
29197;BME280;62796;42.654;23.316;2023-01-04T13:38:12;95552.53;;;13.69;45.66
29197;BME280;62796;42.654;23.316;2023-01-04T13:40:43;95548.81;;;13.57;45.86
29197;BME280;62796;42.654;23.316;2023-01-04T13:43:24;95556.28;;;13.51;46.06
29197;BME280;62796;42.654;23.316;2023-01-04T13:46:17;95551.78;;;13.39;46.44
29197;BME280;62796;42.654;23.316;2023-01-04T13:48:45;95543.72;;;13.26;46.62
29197;BME280;62796;42.654;23.316;2023-01-04T13:51:26;95548.41;;;13.20;46.91
29197;BME280;62796;42.654;23.316;2023-01-04T13:54:01;95555.78;;;13.09;47.22
29197;BME280;62796;42.654;23.316;2023-01-04T13:56:29;95550.34;;;12.91;47.75
29197;BME280;62796;42.654;23.316;2023-01-04T13:58:55;95547.28;;;12.89;48.01
29197;BME280;62796;42.654;23.316;2023-01-04T14:01:32;95551.50;;;12.84;48.10
29197;BME280;62796;42.654;23.316;2023-01-04T14:04:05;95548.41;;;12.82;48.05
29197;BME280;62796;42.654;23.316;2023-01-04T14:06:38;95555.91;;;12.91;47.88
29197;BME280;62796;42.654;23.316;2023-01-04T14:11:48;95550.31;;;12.76;48.55
29197;BME280;62796;42.654;23.316;2023-01-04T14:22:39;95556.44;;;12.65;48.73
29197;BME280;62796;42.654;23.316;2023-01-04T14:30:55;95544.50;;;12.50;49.39
29197;BME280;62796;42.654;23.316;2023-01-04T14:38:29;95551.72;;;12.33;50.15
29197;BME280;62796;42.654;23.316;2023-01-04T14:41:10;95540.28;;;12.31;50.21
29197;BME280;62796;42.654;23.316;2023-01-04T14:43:46;95552.84;;;12.27;50.44
29197;BME280;62796;42.654;23.316;2023-01-04T14:46:12;95550.50;;;12.25;50.79
29197;BME280;62796;42.654;23.316;2023-01-04T14:48:37;95551.44;;;12.22;50.80
29197;BME280;62796;42.654;23.316;2023-01-04T14:51:04;95544.72;;;12.14;50.82
29197;BME280;62796;42.654;23.316;2023-01-04T14:53:29;95551.22;;;12.11;51.17
29197;BME280;62796;42.654;23.316;2023-01-04T14:55:55;95554.81;;;12.02;51.23
29197;BME280;62796;42.654;23.316;2023-01-04T14:58:21;95540.53;;;11.86;51.70
29197;BME280;62796;42.654;23.316;2023-01-04T15:00:46;95557.16;;;11.95;51.62
29197;BME280;62796;42.654;23.316;2023-01-04T15:03:12;95560.28;;;11.88;51.63
29197;BME280;62796;42.654;23.316;2023-01-04T15:05:38;95558.13;;;11.83;51.81
29197;BME280;62796;42.654;23.316;2023-01-04T15:08:04;95557.69;;;11.75;52.09
29197;BME280;62796;42.654;23.316;2023-01-04T15:10:29;95553.56;;;11.71;52.26
29197;BME280;62796;42.654;23.316;2023-01-04T15:12:55;95559.41;;;11.73;52.29
29197;BME280;62796;42.654;23.316;2023-01-04T15:15:25;95543.69;;;11.60;52.47
29197;BME280;62796;42.654;23.316;2023-01-04T15:17:50;95551.69;;;11.68;52.18
29197;BME280;62796;42.654;23.316;2023-01-04T15:20:16;95548.78;;;11.62;52.23
29197;BME280;62796;42.654;23.316;2023-01-04T15:22:41;95545.28;;;11.52;52.94
29197;BME280;62796;42.654;23.316;2023-01-04T15:25:08;95568.06;;;11.56;52.72
29197;BME280;62796;42.654;23.316;2023-01-04T15:27:34;95560.06;;;11.58;52.58